sensor_id;sensor_type;location;lat;lon;timestamp;P1;durP1;ratioP1;P2;durP2;ratioP2
5171;SDS011;2605;49.770;9.868;2022-08-20T00:02:18;8.90;;;8.20;;
5171;SDS011;2605;49.770;9.868;2022-08-20T00:04:44;9.63;;;8.93;;
5171;SDS011;2605;49.770;9.868;2022-08-20T00:07:10;8.33;;;7.73;;
5171;SDS011;2605;49.770;9.868;2022-08-20T00:09:37;9.67;;;8.87;;
5171;SDS011;2605;49.770;9.868;2022-08-20T00:12:04;8.33;;;7.67;;
5171;SDS011;2605;49.770;9.868;2022-08-20T00:14:30;8.77;;;8.07;;
5171;SDS011;2605;49.770;9.868;2022-08-20T00:16:55;8.87;;;8.10;;
5171;SDS011;2605;49.770;9.868;2022-08-20T00:19:21;11.23;;;9.33;;
5171;SDS011;2605;49.770;9.868;2022-08-20T00:21:47;8.83;;;8.07;;
5171;SDS011;2605;49.770;9.868;2022-08-20T00:24:13;8.67;;;7.97;;
5171;SDS011;2605;49.770;9.868;2022-08-20T00:26:38;9.40;;;8.60;;
5171;SDS011;2605;49.770;9.868;2022-08-20T00:29:04;8.90;;;7.93;;
5171;SDS011;2605;49.770;9.868;2022-08-20T00:31:29;9.60;;;8.70;;
5171;SDS011;2605;49.770;9.868;2022-08-20T00:33:55;9.40;;;8.40;;
5171;SDS011;2605;49.770;9.868;2022-08-20T00:36:21;13.23;;;12.23;;
5171;SDS011;2605;49.770;9.868;2022-08-20T00:38:47;16.30;;;15.23;;
5171;SDS011;2605;49.770;9.868;2022-08-20T00:41:14;14.70;;;13.50;;
5171;SDS011;2605;49.770;9.868;2022-08-20T00:46:24;7.53;;;6.87;;
5171;SDS011;2605;49.770;9.868;2022-08-20T00:48:52;8.87;;;8.07;;
5171;SDS011;2605;49.770;9.868;2022-08-20T00:51:22;15.93;;;14.47;;
5171;SDS011;2605;49.770;9.868;2022-08-20T00:54:10;16.20;;;15.40;;
5171;SDS011;2605;49.770;9.868;2022-08-20T00:56:45;16.33;;;15.50;;
5171;SDS011;2605;49.770;9.868;2022-08-20T00:59:14;15.83;;;15.00;;
5171;SDS011;2605;49.770;9.868;2022-08-20T01:01:43;16.20;;;15.13;;
5171;SDS011;2605;49.770;9.868;2022-08-20T01:04:09;13.40;;;12.60;;
5171;SDS011;2605;49.770;9.868;2022-08-20T01:06:36;15.07;;;14.17;;
5171;SDS011;2605;49.770;9.868;2022-08-20T01:09:03;14.87;;;13.67;;
5171;SDS011;2605;49.770;9.868;2022-08-20T01:11:30;14.63;;;13.50;;
5171;SDS011;2605;49.770;9.868;2022-08-20T01:13:59;14.70;;;13.80;;
5171;SDS011;2605;49.770;9.868;2022-08-20T01:16:48;14.93;;;14.03;;
5171;SDS011;2605;49.770;9.868;2022-08-20T01:19:17;14.10;;;12.77;;
5171;SDS011;2605;49.770;9.868;2022-08-20T01:21:48;16.07;;;14.97;;
5171;SDS011;2605;49.770;9.868;2022-08-20T01:24:19;15.33;;;14.43;;
5171;SDS011;2605;49.770;9.868;2022-08-20T01:27:07;14.27;;;13.37;;
5171;SDS011;2605;49.770;9.868;2022-08-20T01:29:34;12.50;;;11.57;;
5171;SDS011;2605;49.770;9.868;2022-08-20T01:32:03;13.67;;;12.87;;
5171;SDS011;2605;49.770;9.868;2022-08-20T01:34:29;15.20;;;14.30;;
5171;SDS011;2605;49.770;9.868;2022-08-20T01:36:55;12.90;;;12.10;;
5171;SDS011;2605;49.770;9.868;2022-08-20T01:39:24;9.90;;;9.27;;
5171;SDS011;2605;49.770;9.868;2022-08-20T01:44:39;9.23;;;8.40;;
5171;SDS011;2605;49.770;9.868;2022-08-20T01:47:28;10.70;;;9.70;;
5171;SDS011;2605;49.770;9.868;2022-08-20T01:49:59;9.60;;;8.70;;
5171;SDS011;2605;49.770;9.868;2022-08-20T01:54:55;10.23;;;9.37;;
5171;SDS011;2605;49.770;9.868;2022-08-20T01:57:23;9.90;;;9.00;;
5171;SDS011;2605;49.770;9.868;2022-08-20T01:59:51;10.03;;;9.00;;
5171;SDS011;2605;49.770;9.868;2022-08-20T02:02:16;10.43;;;9.43;;
5171;SDS011;2605;49.770;9.868;2022-08-20T02:04:42;9.53;;;8.47;;
5171;SDS011;2605;49.770;9.868;2022-08-20T02:07:11;9.90;;;9.10;;
5171;SDS011;2605;49.770;9.868;2022-08-20T02:09:42;9.03;;;8.23;;
5171;SDS011;2605;49.770;9.868;2022-08-20T02:12:08;9.53;;;8.63;;
5171;SDS011;2605;49.770;9.868;2022-08-20T02:14:34;10.80;;;9.13;;
5171;SDS011;2605;49.770;9.868;2022-08-20T02:17:15;9.00;;;8.30;;
5171;SDS011;2605;49.770;9.868;2022-08-20T02:19:44;9.33;;;8.43;;
5171;SDS011;2605;49.770;9.868;2022-08-20T02:22:19;8.70;;;7.90;;
5171;SDS011;2605;49.770;9.868;2022-08-20T02:24:53;9.10;;;8.40;;
5171;SDS011;2605;49.770;9.868;2022-08-20T02:27:19;9.13;;;8.33;;
5171;SDS011;2605;49.770;9.868;2022-08-20T02:29:51;9.67;;;8.87;;
5171;SDS011;2605;49.770;9.868;2022-08-20T02:32:17;9.77;;;8.87;;
5171;SDS011;2605;49.770;9.868;2022-08-20T02:34:44;9.37;;;8.67;;
5171;SDS011;2605;49.770;9.868;2022-08-20T02:37:10;9.77;;;8.87;;
5171;SDS011;2605;49.770;9.868;2022-08-20T02:39:38;8.90;;;8.10;;
5171;SDS011;2605;49.770;9.868;2022-08-20T02:42:05;10.20;;;9.30;;
5171;SDS011;2605;49.770;9.868;2022-08-20T02:44:30;10.27;;;9.37;;
5171;SDS011;2605;49.770;9.868;2022-08-20T02:46:56;8.10;;;7.40;;
5171;SDS011;2605;49.770;9.868;2022-08-20T02:49:22;12.17;;;8.90;;
5171;SDS011;2605;49.770;9.868;2022-08-20T02:51:48;8.90;;;8.30;;
5171;SDS011;2605;49.770;9.868;2022-08-20T02:54:13;9.53;;;8.73;;
5171;SDS011;2605;49.770;9.868;2022-08-20T02:56:40;9.20;;;8.43;;
5171;SDS011;2605;49.770;9.868;2022-08-20T02:59:05;11.03;;;9.37;;
5171;SDS011;2605;49.770;9.868;2022-08-20T03:01:31;9.63;;;8.77;;
5171;SDS011;2605;49.770;9.868;2022-08-20T03:03:57;9.27;;;8.00;;
5171;SDS011;2605;49.770;9.868;2022-08-20T03:06:24;9.57;;;8.77;;
5171;SDS011;2605;49.770;9.868;2022-08-20T03:08:50;9.80;;;8.80;;
5171;SDS011;2605;49.770;9.868;2022-08-20T03:11:16;10.10;;;9.13;;
5171;SDS011;2605;49.770;9.868;2022-08-20T03:13:43;8.63;;;7.90;;
5171;SDS011;2605;49.770;9.868;2022-08-20T03:16:08;9.03;;;8.23;;
5171;SDS011;2605;49.770;9.868;2022-08-20T03:18:35;8.00;;;7.40;;
5171;SDS011;2605;49.770;9.868;2022-08-20T03:21:04;9.00;;;8.10;;
5171;SDS011;2605;49.770;9.868;2022-08-20T03:23:31;8.50;;;7.73;;
5171;SDS011;2605;49.770;9.868;2022-08-20T03:25:57;8.00;;;7.40;;
5171;SDS011;2605;49.770;9.868;2022-08-20T03:28:23;10.13;;;9.20;;
5171;SDS011;2605;49.770;9.868;2022-08-20T03:30:50;8.80;;;8.10;;
5171;SDS011;2605;49.770;9.868;2022-08-20T03:33:17;8.87;;;7.90;;
5171;SDS011;2605;49.770;9.868;2022-08-20T03:35:46;9.03;;;8.20;;
5171;SDS011;2605;49.770;9.868;2022-08-20T03:38:12;8.60;;;7.70;;
5171;SDS011;2605;49.770;9.868;2022-08-20T03:40:40;9.17;;;8.37;;
5171;SDS011;2605;49.770;9.868;2022-08-20T03:43:06;9.63;;;7.57;;
5171;SDS011;2605;49.770;9.868;2022-08-20T03:45:36;6.83;;;6.30;;
5171;SDS011;2605;49.770;9.868;2022-08-20T03:48:03;8.27;;;7.60;;
5171;SDS011;2605;49.770;9.868;2022-08-20T03:50:31;12.53;;;8.20;;
5171;SDS011;2605;49.770;9.868;2022-08-20T03:52:57;7.90;;;7.20;;
5171;SDS011;2605;49.770;9.868;2022-08-20T03:55:24;9.50;;;8.60;;
5171;SDS011;2605;49.770;9.868;2022-08-20T03:57:51;11.43;;;8.40;;
5171;SDS011;2605;49.770;9.868;2022-08-20T04:00:24;10.20;;;7.90;;
5171;SDS011;2605;49.770;9.868;2022-08-20T04:02:51;10.03;;;9.03;;
5171;SDS011;2605;49.770;9.868;2022-08-20T04:05:17;10.13;;;9.03;;
5171;SDS011;2605;49.770;9.868;2022-08-20T04:07:43;8.40;;;7.80;;
5171;SDS011;2605;49.770;9.868;2022-08-20T04:10:09;8.80;;;7.70;;
5171;SDS011;2605;49.770;9.868;2022-08-20T04:12:36;8.80;;;8.00;;
5171;SDS011;2605;49.770;9.868;2022-08-20T04:15:05;11.20;;;8.67;;
5171;SDS011;2605;49.770;9.868;2022-08-20T04:17:35;8.70;;;8.00;;
5171;SDS011;2605;49.770;9.868;2022-08-20T04:20:03;7.93;;;7.23;;
5171;SDS011;2605;49.770;9.868;2022-08-20T04:22:29;9.37;;;8.47;;
5171;SDS011;2605;49.770;9.868;2022-08-20T04:24:55;9.07;;;7.37;;
5171;SDS011;2605;49.770;9.868;2022-08-20T04:27:20;8.50;;;7.80;;
5171;SDS011;2605;49.770;9.868;2022-08-20T04:29:48;7.30;;;6.70;;
5171;SDS011;2605;49.770;9.868;2022-08-20T04:32:14;7.17;;;6.57;;
5171;SDS011;2605;49.770;9.868;2022-08-20T04:34:39;8.43;;;7.67;;
5171;SDS011;2605;49.770;9.868;2022-08-20T04:37:05;7.73;;;7.13;;
5171;SDS011;2605;49.770;9.868;2022-08-20T04:39:31;13.20;;;9.27;;
5171;SDS011;2605;49.770;9.868;2022-08-20T04:41:57;10.23;;;7.97;;
5171;SDS011;2605;49.770;9.868;2022-08-20T04:44:23;9.00;;;8.30;;
5171;SDS011;2605;49.770;9.868;2022-08-20T04:46:49;8.50;;;7.80;;
5171;SDS011;2605;49.770;9.868;2022-08-20T04:49:14;8.70;;;8.00;;
5171;SDS011;2605;49.770;9.868;2022-08-20T04:51:40;9.60;;;8.70;;
5171;SDS011;2605;49.770;9.868;2022-08-20T04:54:05;8.40;;;7.70;;
5171;SDS011;2605;49.770;9.868;2022-08-20T04:56:32;8.83;;;8.00;;
5171;SDS011;2605;49.770;9.868;2022-08-20T04:59:03;9.37;;;8.57;;
5171;SDS011;2605;49.770;9.868;2022-08-20T05:01:29;7.70;;;7.07;;
5171;SDS011;2605;49.770;9.868;2022-08-20T05:03:54;7.63;;;7.00;;
5171;SDS011;2605;49.770;9.868;2022-08-20T05:06:22;11.60;;;9.53;;
5171;SDS011;2605;49.770;9.868;2022-08-20T05:08:50;9.43;;;8.63;;
5171;SDS011;2605;49.770;9.868;2022-08-20T05:11:17;8.43;;;7.80;;
5171;SDS011;2605;49.770;9.868;2022-08-20T05:13:45;8.10;;;7.40;;
5171;SDS011;2605;49.770;9.868;2022-08-20T05:16:10;9.13;;;8.33;;
5171;SDS011;2605;49.770;9.868;2022-08-20T05:18:36;8.73;;;7.93;;
5171;SDS011;2605;49.770;9.868;2022-08-20T05:21:02;9.43;;;7.53;;
5171;SDS011;2605;49.770;9.868;2022-08-20T05:23:30;9.17;;;8.27;;
5171;SDS011;2605;49.770;9.868;2022-08-20T05:26:00;14.43;;;8.60;;
5171;SDS011;2605;49.770;9.868;2022-08-20T05:28:34;9.13;;;8.33;;
5171;SDS011;2605;49.770;9.868;2022-08-20T05:31:03;10.93;;;9.80;;
5171;SDS011;2605;49.770;9.868;2022-08-20T05:33:33;9.00;;;8.20;;
5171;SDS011;2605;49.770;9.868;2022-08-20T05:35:59;8.60;;;7.80;;
5171;SDS011;2605;49.770;9.868;2022-08-20T05:38:26;9.03;;;8.23;;
5171;SDS011;2605;49.770;9.868;2022-08-20T05:40:53;8.83;;;8.03;;
5171;SDS011;2605;49.770;9.868;2022-08-20T05:43:19;11.63;;;8.07;;
5171;SDS011;2605;49.770;9.868;2022-08-20T05:45:45;8.07;;;7.47;;
5171;SDS011;2605;49.770;9.868;2022-08-20T05:48:17;8.53;;;7.83;;
5171;SDS011;2605;49.770;9.868;2022-08-20T05:50:45;8.60;;;7.80;;
5171;SDS011;2605;49.770;9.868;2022-08-20T05:53:13;8.90;;;8.10;;
5171;SDS011;2605;49.770;9.868;2022-08-20T05:55:39;8.43;;;7.67;;
5171;SDS011;2605;49.770;9.868;2022-08-20T05:58:06;9.20;;;8.30;;
5171;SDS011;2605;49.770;9.868;2022-08-20T06:00:33;9.13;;;8.43;;
5171;SDS011;2605;49.770;9.868;2022-08-20T06:02:59;7.87;;;7.17;;
5171;SDS011;2605;49.770;9.868;2022-08-20T06:05:43;9.30;;;8.40;;
5171;SDS011;2605;49.770;9.868;2022-08-20T06:08:10;8.50;;;7.37;;
5171;SDS011;2605;49.770;9.868;2022-08-20T06:10:37;8.00;;;7.30;;
5171;SDS011;2605;49.770;9.868;2022-08-20T06:13:04;8.10;;;7.30;;
5171;SDS011;2605;49.770;9.868;2022-08-20T06:15:30;9.30;;;8.40;;
5171;SDS011;2605;49.770;9.868;2022-08-20T06:17:56;9.60;;;8.80;;
5171;SDS011;2605;49.770;9.868;2022-08-20T06:20:22;7.40;;;6.90;;
5171;SDS011;2605;49.770;9.868;2022-08-20T06:22:48;9.10;;;8.40;;
5171;SDS011;2605;49.770;9.868;2022-08-20T06:25:13;8.43;;;7.73;;
5171;SDS011;2605;49.770;9.868;2022-08-20T06:27:40;8.37;;;7.60;;
5171;SDS011;2605;49.770;9.868;2022-08-20T06:30:08;7.60;;;7.00;;
5171;SDS011;2605;49.770;9.868;2022-08-20T06:32:36;8.87;;;8.07;;
5171;SDS011;2605;49.770;9.868;2022-08-20T06:35:03;8.83;;;7.97;;
5171;SDS011;2605;49.770;9.868;2022-08-20T06:37:32;9.60;;;7.53;;
5171;SDS011;2605;49.770;9.868;2022-08-20T06:40:02;13.10;;;8.57;;
5171;SDS011;2605;49.770;9.868;2022-08-20T06:42:46;11.50;;;8.27;;
5171;SDS011;2605;49.770;9.868;2022-08-20T06:45:13;9.47;;;8.60;;
5171;SDS011;2605;49.770;9.868;2022-08-20T06:47:42;13.83;;;8.30;;
5171;SDS011;2605;49.770;9.868;2022-08-20T06:50:10;8.53;;;7.70;;
5171;SDS011;2605;49.770;9.868;2022-08-20T06:52:41;8.70;;;7.90;;
5171;SDS011;2605;49.770;9.868;2022-08-20T06:55:09;9.20;;;8.40;;
5171;SDS011;2605;49.770;9.868;2022-08-20T06:57:36;8.53;;;7.73;;
5171;SDS011;2605;49.770;9.868;2022-08-20T07:00:03;7.40;;;6.83;;
5171;SDS011;2605;49.770;9.868;2022-08-20T07:02:31;10.60;;;8.20;;
5171;SDS011;2605;49.770;9.868;2022-08-20T07:04:57;9.40;;;8.20;;
5171;SDS011;2605;49.770;9.868;2022-08-20T07:07:23;11.37;;;8.67;;
5171;SDS011;2605;49.770;9.868;2022-08-20T07:09:49;10.30;;;8.93;;
5171;SDS011;2605;49.770;9.868;2022-08-20T07:12:14;8.07;;;6.93;;
5171;SDS011;2605;49.770;9.868;2022-08-20T07:14:40;11.70;;;7.30;;
5171;SDS011;2605;49.770;9.868;2022-08-20T07:17:05;8.33;;;7.57;;
5171;SDS011;2605;49.770;9.868;2022-08-20T07:19:31;8.87;;;8.07;;
5171;SDS011;2605;49.770;9.868;2022-08-20T07:21:57;7.83;;;7.13;;
5171;SDS011;2605;49.770;9.868;2022-08-20T07:24:23;8.47;;;7.60;;
5171;SDS011;2605;49.770;9.868;2022-08-20T07:26:49;9.57;;;6.80;;
5171;SDS011;2605;49.770;9.868;2022-08-20T07:29:16;9.77;;;8.83;;
5171;SDS011;2605;49.770;9.868;2022-08-20T07:31:42;9.13;;;8.23;;
5171;SDS011;2605;49.770;9.868;2022-08-20T07:34:26;11.90;;;6.97;;
5171;SDS011;2605;49.770;9.868;2022-08-20T07:36:52;14.30;;;9.03;;
5171;SDS011;2605;49.770;9.868;2022-08-20T07:39:17;8.17;;;7.47;;
5171;SDS011;2605;49.770;9.868;2022-08-20T07:41:43;9.90;;;7.00;;
5171;SDS011;2605;49.770;9.868;2022-08-20T07:44:08;11.17;;;8.40;;
5171;SDS011;2605;49.770;9.868;2022-08-20T07:46:34;9.40;;;8.60;;
5171;SDS011;2605;49.770;9.868;2022-08-20T07:48:59;11.33;;;7.50;;
5171;SDS011;2605;49.770;9.868;2022-08-20T07:51:25;12.03;;;8.50;;
5171;SDS011;2605;49.770;9.868;2022-08-20T07:53:50;10.20;;;9.17;;
5171;SDS011;2605;49.770;9.868;2022-08-20T07:56:18;9.00;;;7.90;;
5171;SDS011;2605;49.770;9.868;2022-08-20T07:58:48;10.83;;;7.50;;
5171;SDS011;2605;49.770;9.868;2022-08-20T08:01:20;8.50;;;7.80;;
5171;SDS011;2605;49.770;9.868;2022-08-20T08:03:50;10.77;;;9.77;;
5171;SDS011;2605;49.770;9.868;2022-08-20T08:06:20;10.13;;;9.27;;
5171;SDS011;2605;49.770;9.868;2022-08-20T08:08:47;10.63;;;9.83;;
5171;SDS011;2605;49.770;9.868;2022-08-20T08:11:13;10.40;;;9.43;;
5171;SDS011;2605;49.770;9.868;2022-08-20T08:13:39;9.90;;;8.90;;
5171;SDS011;2605;49.770;9.868;2022-08-20T08:16:06;9.57;;;8.87;;
5171;SDS011;2605;49.770;9.868;2022-08-20T08:18:35;10.83;;;9.93;;
5171;SDS011;2605;49.770;9.868;2022-08-20T08:21:05;10.27;;;9.47;;
5171;SDS011;2605;49.770;9.868;2022-08-20T08:23:31;11.40;;;10.40;;
5171;SDS011;2605;49.770;9.868;2022-08-20T08:25:58;9.80;;;9.10;;
5171;SDS011;2605;49.770;9.868;2022-08-20T08:28:24;10.30;;;9.40;;
5171;SDS011;2605;49.770;9.868;2022-08-20T08:30:52;9.97;;;8.90;;
5171;SDS011;2605;49.770;9.868;2022-08-20T08:33:22;9.33;;;8.33;;
5171;SDS011;2605;49.770;9.868;2022-08-20T08:35:59;12.40;;;8.97;;
5171;SDS011;2605;49.770;9.868;2022-08-20T08:38:29;13.23;;;9.03;;
5171;SDS011;2605;49.770;9.868;2022-08-20T08:40:56;12.63;;;11.27;;
5171;SDS011;2605;49.770;9.868;2022-08-20T08:43:25;14.43;;;12.20;;
5171;SDS011;2605;49.770;9.868;2022-08-20T08:46:02;15.00;;;13.23;;
5171;SDS011;2605;49.770;9.868;2022-08-20T08:48:34;14.90;;;13.50;;
5171;SDS011;2605;49.770;9.868;2022-08-20T08:51:03;15.70;;;14.10;;
5171;SDS011;2605;49.770;9.868;2022-08-20T08:53:38;16.77;;;14.60;;
5171;SDS011;2605;49.770;9.868;2022-08-20T08:56:08;15.83;;;13.57;;
5171;SDS011;2605;49.770;9.868;2022-08-20T08:58:38;14.30;;;12.80;;
5171;SDS011;2605;49.770;9.868;2022-08-20T09:01:16;17.40;;;15.63;;
5171;SDS011;2605;49.770;9.868;2022-08-20T09:03:44;13.67;;;12.10;;
5171;SDS011;2605;49.770;9.868;2022-08-20T09:06:13;12.63;;;11.53;;
5171;SDS011;2605;49.770;9.868;2022-08-20T09:08:50;12.07;;;10.97;;
5171;SDS011;2605;49.770;9.868;2022-08-20T09:11:27;11.10;;;10.07;;
5171;SDS011;2605;49.770;9.868;2022-08-20T09:13:53;9.50;;;8.70;;
5171;SDS011;2605;49.770;9.868;2022-08-20T09:16:20;10.67;;;9.87;;
5171;SDS011;2605;49.770;9.868;2022-08-20T09:18:50;10.50;;;9.60;;
5171;SDS011;2605;49.770;9.868;2022-08-20T09:21:16;10.80;;;9.80;;
5171;SDS011;2605;49.770;9.868;2022-08-20T09:23:41;10.57;;;9.47;;
5171;SDS011;2605;49.770;9.868;2022-08-20T09:26:07;10.03;;;9.13;;
5171;SDS011;2605;49.770;9.868;2022-08-20T09:28:33;10.50;;;9.70;;
5171;SDS011;2605;49.770;9.868;2022-08-20T09:30:59;10.20;;;9.17;;
5171;SDS011;2605;49.770;9.868;2022-08-20T09:33:25;9.93;;;9.13;;
5171;SDS011;2605;49.770;9.868;2022-08-20T09:35:51;9.67;;;8.83;;
5171;SDS011;2605;49.770;9.868;2022-08-20T09:38:16;9.13;;;8.53;;
5171;SDS011;2605;49.770;9.868;2022-08-20T09:40:42;10.50;;;9.70;;
5171;SDS011;2605;49.770;9.868;2022-08-20T09:43:09;9.80;;;9.10;;
5171;SDS011;2605;49.770;9.868;2022-08-20T09:45:35;10.50;;;9.60;;
5171;SDS011;2605;49.770;9.868;2022-08-20T09:48:01;8.70;;;8.10;;
5171;SDS011;2605;49.770;9.868;2022-08-20T09:50:30;9.10;;;8.40;;
5171;SDS011;2605;49.770;9.868;2022-08-20T09:52:58;9.37;;;8.60;;
5171;SDS011;2605;49.770;9.868;2022-08-20T09:55:32;10.07;;;9.27;;
5171;SDS011;2605;49.770;9.868;2022-08-20T09:58:08;9.57;;;8.77;;
5171;SDS011;2605;49.770;9.868;2022-08-20T10:00:35;11.03;;;9.67;;
5171;SDS011;2605;49.770;9.868;2022-08-20T10:03:01;8.80;;;8.17;;
5171;SDS011;2605;49.770;9.868;2022-08-20T10:05:27;8.73;;;8.03;;
5171;SDS011;2605;49.770;9.868;2022-08-20T10:07:53;9.80;;;8.80;;
5171;SDS011;2605;49.770;9.868;2022-08-20T10:10:19;9.70;;;8.90;;
5171;SDS011;2605;49.770;9.868;2022-08-20T10:12:44;8.47;;;7.97;;
5171;SDS011;2605;49.770;9.868;2022-08-20T10:15:10;10.10;;;9.20;;
5171;SDS011;2605;49.770;9.868;2022-08-20T10:17:37;10.03;;;9.03;;
5171;SDS011;2605;49.770;9.868;2022-08-20T10:20:04;8.57;;;7.77;;
5171;SDS011;2605;49.770;9.868;2022-08-20T10:22:29;9.90;;;9.10;;
5171;SDS011;2605;49.770;9.868;2022-08-20T10:24:56;9.40;;;8.60;;
5171;SDS011;2605;49.770;9.868;2022-08-20T10:27:22;8.70;;;8.10;;
5171;SDS011;2605;49.770;9.868;2022-08-20T10:29:47;6.83;;;6.33;;
5171;SDS011;2605;49.770;9.868;2022-08-20T10:32:13;9.37;;;8.50;;
5171;SDS011;2605;49.770;9.868;2022-08-20T10:34:41;13.03;;;11.90;;
5171;SDS011;2605;49.770;9.868;2022-08-20T10:37:08;11.47;;;10.87;;
5171;SDS011;2605;49.770;9.868;2022-08-20T10:39:37;11.50;;;10.90;;
5171;SDS011;2605;49.770;9.868;2022-08-20T10:42:03;11.70;;;11.10;;
5171;SDS011;2605;49.770;9.868;2022-08-20T10:44:29;13.70;;;13.00;;
5171;SDS011;2605;49.770;9.868;2022-08-20T10:46:54;14.23;;;13.63;;
5171;SDS011;2605;49.770;9.868;2022-08-20T10:49:23;13.20;;;12.60;;
5171;SDS011;2605;49.770;9.868;2022-08-20T10:51:48;13.80;;;13.00;;
5171;SDS011;2605;49.770;9.868;2022-08-20T10:54:14;14.10;;;13.30;;
5171;SDS011;2605;49.770;9.868;2022-08-20T10:56:40;15.00;;;14.30;;
5171;SDS011;2605;49.770;9.868;2022-08-20T10:59:05;14.93;;;14.23;;
5171;SDS011;2605;49.770;9.868;2022-08-20T11:01:31;14.97;;;14.17;;
5171;SDS011;2605;49.770;9.868;2022-08-20T11:03:56;14.07;;;13.33;;
5171;SDS011;2605;49.770;9.868;2022-08-20T11:06:24;14.50;;;13.80;;
5171;SDS011;2605;49.770;9.868;2022-08-20T11:08:49;15.50;;;14.70;;
5171;SDS011;2605;49.770;9.868;2022-08-20T11:11:15;13.53;;;12.97;;
5171;SDS011;2605;49.770;9.868;2022-08-20T11:13:40;14.73;;;13.87;;
5171;SDS011;2605;49.770;9.868;2022-08-20T11:16:06;14.33;;;13.63;;
5171;SDS011;2605;49.770;9.868;2022-08-20T11:18:31;15.33;;;14.53;;
5171;SDS011;2605;49.770;9.868;2022-08-20T11:20:57;15.07;;;14.37;;
5171;SDS011;2605;49.770;9.868;2022-08-20T11:23:23;14.83;;;14.13;;
5171;SDS011;2605;49.770;9.868;2022-08-20T11:25:48;16.83;;;15.77;;
5171;SDS011;2605;49.770;9.868;2022-08-20T11:28:14;14.90;;;14.30;;
5171;SDS011;2605;49.770;9.868;2022-08-20T11:30:40;14.50;;;13.90;;
5171;SDS011;2605;49.770;9.868;2022-08-20T11:33:06;15.70;;;14.90;;
5171;SDS011;2605;49.770;9.868;2022-08-20T11:35:32;14.33;;;13.70;;
5171;SDS011;2605;49.770;9.868;2022-08-20T11:37:59;14.77;;;14.07;;
5171;SDS011;2605;49.770;9.868;2022-08-20T11:40:26;15.10;;;13.80;;
5171;SDS011;2605;49.770;9.868;2022-08-20T11:42:53;14.83;;;14.13;;
5171;SDS011;2605;49.770;9.868;2022-08-20T11:45:19;13.77;;;13.17;;
5171;SDS011;2605;49.770;9.868;2022-08-20T11:47:45;14.23;;;13.63;;
5171;SDS011;2605;49.770;9.868;2022-08-20T11:50:12;14.57;;;13.97;;
5171;SDS011;2605;49.770;9.868;2022-08-20T11:52:40;14.87;;;14.13;;
5171;SDS011;2605;49.770;9.868;2022-08-20T11:55:06;15.33;;;14.63;;
5171;SDS011;2605;49.770;9.868;2022-08-20T11:57:35;15.60;;;14.80;;
5171;SDS011;2605;49.770;9.868;2022-08-20T12:00:04;14.93;;;14.23;;
5171;SDS011;2605;49.770;9.868;2022-08-20T12:02:32;15.20;;;14.50;;
5171;SDS011;2605;49.770;9.868;2022-08-20T12:04:58;14.00;;;13.40;;
5171;SDS011;2605;49.770;9.868;2022-08-20T12:07:23;14.50;;;13.90;;
5171;SDS011;2605;49.770;9.868;2022-08-20T12:09:50;14.23;;;13.47;;
5171;SDS011;2605;49.770;9.868;2022-08-20T12:12:16;13.63;;;12.67;;
5171;SDS011;2605;49.770;9.868;2022-08-20T12:14:44;15.37;;;14.10;;
5171;SDS011;2605;49.770;9.868;2022-08-20T12:17:14;13.90;;;13.30;;
5171;SDS011;2605;49.770;9.868;2022-08-20T12:19:43;13.00;;;12.50;;
5171;SDS011;2605;49.770;9.868;2022-08-20T12:22:09;14.77;;;14.07;;
5171;SDS011;2605;49.770;9.868;2022-08-20T12:24:38;14.00;;;13.43;;
5171;SDS011;2605;49.770;9.868;2022-08-20T12:27:11;13.20;;;12.60;;
5171;SDS011;2605;49.770;9.868;2022-08-20T12:29:40;13.23;;;12.73;;
5171;SDS011;2605;49.770;9.868;2022-08-20T12:32:07;14.00;;;13.40;;
5171;SDS011;2605;49.770;9.868;2022-08-20T12:34:33;14.80;;;13.97;;
5171;SDS011;2605;49.770;9.868;2022-08-20T12:37:00;15.47;;;14.87;;
5171;SDS011;2605;49.770;9.868;2022-08-20T12:39:47;14.13;;;13.57;;
5171;SDS011;2605;49.770;9.868;2022-08-20T12:42:16;14.70;;;14.10;;
5171;SDS011;2605;49.770;9.868;2022-08-20T12:44:41;15.13;;;14.23;;
5171;SDS011;2605;49.770;9.868;2022-08-20T12:47:09;15.97;;;15.23;;
5171;SDS011;2605;49.770;9.868;2022-08-20T12:49:37;15.90;;;15.20;;
5171;SDS011;2605;49.770;9.868;2022-08-20T12:52:05;15.20;;;14.60;;
5171;SDS011;2605;49.770;9.868;2022-08-20T12:54:31;15.17;;;14.47;;
5171;SDS011;2605;49.770;9.868;2022-08-20T12:56:56;13.47;;;12.97;;
5171;SDS011;2605;49.770;9.868;2022-08-20T12:59:22;11.93;;;11.43;;
5171;SDS011;2605;49.770;9.868;2022-08-20T13:01:52;13.07;;;12.57;;
5171;SDS011;2605;49.770;9.868;2022-08-20T13:04:18;14.80;;;14.10;;
5171;SDS011;2605;49.770;9.868;2022-08-20T13:06:44;13.90;;;13.30;;
5171;SDS011;2605;49.770;9.868;2022-08-20T13:09:10;13.47;;;12.97;;
5171;SDS011;2605;49.770;9.868;2022-08-20T13:11:35;15.00;;;14.40;;
5171;SDS011;2605;49.770;9.868;2022-08-20T13:14:01;14.03;;;13.43;;
5171;SDS011;2605;49.770;9.868;2022-08-20T13:16:26;14.33;;;13.73;;
5171;SDS011;2605;49.770;9.868;2022-08-20T13:18:52;14.07;;;13.47;;
5171;SDS011;2605;49.770;9.868;2022-08-20T13:21:17;13.90;;;13.30;;
5171;SDS011;2605;49.770;9.868;2022-08-20T13:23:43;14.20;;;13.60;;
5171;SDS011;2605;49.770;9.868;2022-08-20T13:26:08;15.10;;;14.30;;
5171;SDS011;2605;49.770;9.868;2022-08-20T13:28:34;14.00;;;13.50;;
5171;SDS011;2605;49.770;9.868;2022-08-20T13:30:59;12.87;;;12.37;;
5171;SDS011;2605;49.770;9.868;2022-08-20T13:33:26;12.77;;;12.37;;
5171;SDS011;2605;49.770;9.868;2022-08-20T13:35:52;12.33;;;11.93;;
5171;SDS011;2605;49.770;9.868;2022-08-20T13:38:19;13.20;;;12.70;;
5171;SDS011;2605;49.770;9.868;2022-08-20T13:40:45;13.00;;;12.50;;
5171;SDS011;2605;49.770;9.868;2022-08-20T13:43:10;13.53;;;13.00;;
5171;SDS011;2605;49.770;9.868;2022-08-20T13:45:36;13.70;;;13.20;;
5171;SDS011;2605;49.770;9.868;2022-08-20T13:48:03;14.03;;;13.50;;
5171;SDS011;2605;49.770;9.868;2022-08-20T13:50:33;13.90;;;13.40;;
5171;SDS011;2605;49.770;9.868;2022-08-20T13:52:59;13.27;;;12.80;;
5171;SDS011;2605;49.770;9.868;2022-08-20T13:55:26;14.00;;;13.50;;
5171;SDS011;2605;49.770;9.868;2022-08-20T13:57:52;12.43;;;12.03;;
5171;SDS011;2605;49.770;9.868;2022-08-20T14:00:25;14.70;;;14.00;;
5171;SDS011;2605;49.770;9.868;2022-08-20T14:02:52;13.80;;;13.30;;
5171;SDS011;2605;49.770;9.868;2022-08-20T14:05:18;14.03;;;13.53;;
5171;SDS011;2605;49.770;9.868;2022-08-20T14:07:44;14.00;;;13.50;;
5171;SDS011;2605;49.770;9.868;2022-08-20T14:10:12;14.80;;;14.10;;
5171;SDS011;2605;49.770;9.868;2022-08-20T14:12:42;12.30;;;11.80;;
5171;SDS011;2605;49.770;9.868;2022-08-20T14:15:08;10.93;;;10.53;;
5171;SDS011;2605;49.770;9.868;2022-08-20T14:17:35;7.80;;;7.50;;
5171;SDS011;2605;49.770;9.868;2022-08-20T14:20:07;2.60;;;2.50;;
5171;SDS011;2605;49.770;9.868;2022-08-20T14:22:33;7.10;;;6.80;;
5171;SDS011;2605;49.770;9.868;2022-08-20T14:24:59;3.90;;;3.73;;
5171;SDS011;2605;49.770;9.868;2022-08-20T14:27:27;2.70;;;2.60;;
5171;SDS011;2605;49.770;9.868;2022-08-20T14:29:54;2.83;;;2.73;;
5171;SDS011;2605;49.770;9.868;2022-08-20T14:32:20;2.73;;;2.63;;
5171;SDS011;2605;49.770;9.868;2022-08-20T14:34:45;3.57;;;3.37;;
5171;SDS011;2605;49.770;9.868;2022-08-20T14:37:19;2.80;;;2.70;;
5171;SDS011;2605;49.770;9.868;2022-08-20T14:39:48;2.63;;;2.53;;
5171;SDS011;2605;49.770;9.868;2022-08-20T14:42:15;2.60;;;2.50;;
5171;SDS011;2605;49.770;9.868;2022-08-20T14:44:41;2.67;;;2.57;;
5171;SDS011;2605;49.770;9.868;2022-08-20T14:47:23;2.70;;;2.57;;
5171;SDS011;2605;49.770;9.868;2022-08-20T14:49:51;3.47;;;3.27;;
5171;SDS011;2605;49.770;9.868;2022-08-20T14:52:18;2.70;;;2.60;;
5171;SDS011;2605;49.770;9.868;2022-08-20T14:54:46;3.50;;;3.40;;
5171;SDS011;2605;49.770;9.868;2022-08-20T14:57:13;16.47;;;15.77;;
5171;SDS011;2605;49.770;9.868;2022-08-20T14:59:40;13.43;;;12.93;;
5171;SDS011;2605;49.770;9.868;2022-08-20T15:02:07;2.83;;;2.63;;
5171;SDS011;2605;49.770;9.868;2022-08-20T15:04:34;2.83;;;2.73;;
5171;SDS011;2605;49.770;9.868;2022-08-20T15:07:01;14.13;;;5.50;;
5171;SDS011;2605;49.770;9.868;2022-08-20T15:09:28;5.13;;;4.83;;
5171;SDS011;2605;49.770;9.868;2022-08-20T15:11:54;7.30;;;5.13;;
5171;SDS011;2605;49.770;9.868;2022-08-20T15:14:20;6.07;;;5.57;;